Other Surface Observations
Issued by NWS Great Falls, MT

Home | Current Version | Previous Version | Text Only | Print | Product List | Glossary On
Versions: 1 2 3 4 5 6 7 8 9 10 11 12 13 14 15 16 17 18 19 20 21 22 23 24 25 26 27 28 29 30 31 32 33 34 35 36 37 38 39 40 41 42 43 44 45 46 47 48 49 50
574
SXUS55 KTFX 200221
OSOTFX

AREA AWOS OBSERVATIONS
NATIONAL WEATHER SERVICE GREAT FALLS MT
0821 PM MDT Thu Apr 19 2018

METAR KCII 200215Z AUTO 05005KT 10SM 10/M01 A3009 RMK A01
METAR K6S0 200220Z AUTO 08007KT 10SM SCT110 11/M03 A3003 RMK A01
METAR K6S8 200220Z AUTO 05009KT 10SM 13/M01 A3001 RMK A01
METAR K7S6 200215Z AUTO 00000KT 10SM 09/M05 A3003 RMK A01
METAR K7S0 200220Z AUTO 00000KT 10SM 13/01 A3007 RMK A01



USA.gov is the U.S. government's official web portal to all federal, state and local government web resources and services.